Time;durP1;ratioP1;P1;durP2;ratioP2;P2;SDS_P1;SDS_P2;PMS_P1;PMS_P2;Temp;Humidity;BMP_temperature;BMP_pressure;BME280_temperature;BME280_humidity;BME280_pressure;Samples;Min_cycle;Max_cycle;Signal;HPM_P1;HPM_P2
2021/05/18 00:01:29;;;;;;;10.60;2.40;;;15.30;96.70;;;;;;5103057;28;20067;-76
2021/05/18 00:03:59;;;;;;;15.68;3.78;;;15.30;96.70;;;;;;5094172;28;20718;-75
2021/05/18 00:06:30;;;;;;;10.35;2.42;;;15.30;96.70;;;;;;5080968;28;20500;-76
2021/05/18 00:11:48;;;;;;;15.45;2.85;;;15.20;96.70;;;;;;5097022;28;20412;-76
2021/05/18 00:14:20;;;;;;;11.73;3.08;;;15.20;96.70;;;;;;5083512;28;20040;-75
2021/05/18 00:16:52;;;;;;;13.93;2.60;;;15.10;96.70;;;;;;5100053;28;20043;-75
2021/05/18 00:19:21;;;;;;;10.95;2.47;;;15.00;96.70;;;;;;5100105;28;20427;-76
2021/05/18 00:21:52;;;;;;;11.38;2.15;;;15.10;96.70;;;;;;5097554;28;20527;-75
2021/05/18 00:24:22;;;;;;;14.35;2.75;;;15.10;96.70;;;;;;5097641;28;20043;-75
2021/05/18 00:26:51;;;;;;;15.20;3.05;;;15.00;96.70;;;;;;5099355;28;20061;-75
2021/05/18 00:29:21;;;;;;;13.50;2.90;;;14.90;96.70;;;;;;5102425;28;20130;-75
2021/05/18 00:31:50;;;;;;;13.10;2.38;;;14.90;96.70;;;;;;5099403;28;20040;-76
2021/05/18 00:34:18;;;;;;;14.45;3.05;;;15.00;96.70;;;;;;5084991;28;20438;-76
2021/05/18 00:36:48;;;;;;;12.32;3.05;;;15.00;96.70;;;;;;5101054;28;20031;-75
2021/05/18 00:39:41;;;;;;;15.20;3.22;;;15.00;96.70;;;;;;5112262;28;20119;-75
2021/05/18 00:42:14;;;;;;;10.77;2.45;;;15.00;96.70;;;;;;5100606;28;20043;-75
2021/05/18 00:44:44;;;;;;;15.63;3.20;;;15.00;96.70;;;;;;5100736;28;20583;-75
2021/05/18 00:47:13;;;;;;;14.75;2.97;;;15.00;96.70;;;;;;5098728;28;20035;-75
2021/05/18 00:50:16;;;;;;;13.43;3.13;;;15.00;96.70;;;;;;5083427;28;20047;-75
2021/05/18 00:52:44;;;;;;;17.38;2.95;;;15.00;96.70;;;;;;5101169;28;20070;-75
2021/05/18 00:55:35;;;;;;;12.32;2.58;;;14.90;96.70;;;;;;5098274;28;20048;-75
2021/05/18 01:00:55;;;;;;;9.65;2.33;;;14.90;96.70;;;;;;5099541;28;20066;-75
2021/05/18 01:03:24;;;;;;;16.23;2.92;;;14.90;96.70;;;;;;5100244;28;20040;-76
2021/05/18 01:08:42;;;;;;;12.27;2.78;;;14.70;96.70;;;;;;5101687;28;20060;-75
2021/05/18 01:11:13;;;;;;;11.30;2.65;;;14.70;96.70;;;;;;5101372;28;20122;-76
2021/05/18 01:13:41;;;;;;;12.32;2.90;;;14.60;96.70;;;;;;5104142;28;20039;-76
2021/05/18 01:16:11;;;;;;;13.52;2.55;;;14.60;96.70;;;;;;5101896;28;20035;-76
2021/05/18 01:18:44;;;;;;;14.82;3.13;;;14.60;96.70;;;;;;5098850;28;20611;-76
2021/05/18 01:21:16;;;;;;;8.90;2.13;;;14.70;96.70;;;;;;5078567;28;20043;-76
2021/05/18 01:23:46;;;;;;;13.23;3.00;;;14.70;96.70;;;;;;5099763;28;20040;-75
2021/05/18 01:26:16;;;;;;;13.75;3.03;;;14.80;96.70;;;;;;5099405;28;20036;-76
2021/05/18 01:28:46;;;;;;;8.27;2.50;;;14.90;96.70;;;;;;5101896;28;20228;-76
2021/05/18 01:31:19;;;;;;;13.25;2.65;;;14.80;96.70;;;;;;5101495;28;20069;-76
2021/05/18 01:33:49;;;;;;;17.58;3.38;;;14.90;96.70;;;;;;5099526;28;20044;-76
2021/05/18 01:36:23;;;;;;;14.38;2.65;;;14.90;96.70;;;;;;5104771;28;20039;-76
2021/05/18 01:44:54;;;;;;;12.07;2.72;;;14.80;96.70;;;;;;5096228;28;20059;-76
2021/05/18 01:47:24;;;;;;;7.07;2.30;;;14.80;96.70;;;;;;5104681;28;20056;-76
2021/05/18 01:49:54;;;;;;;11.23;2.85;;;14.70;96.70;;;;;;5097845;28;20054;-76
2021/05/18 01:53:14;;;;;;;10.70;2.35;;;14.70;96.70;;;;;;5101228;28;20043;-76
2021/05/18 01:58:23;;;;;;;8.13;1.90;;;14.60;96.70;;;;;;5093268;28;20599;-76
2021/05/18 02:01:12;;;;;;;12.82;2.55;;;14.70;96.70;;;;;;5101575;28;20059;-76
2021/05/18 02:03:40;;;;;;;7.38;2.03;;;14.70;96.70;;;;;;5101868;28;20489;-75
2021/05/18 02:06:11;;;;;;;8.13;2.03;;;14.60;96.70;;;;;;5097245;28;20124;-76
2021/05/18 02:08:45;;;;;;;6.07;2.03;;;14.70;96.70;;;;;;5101182;28;20043;-77
2021/05/18 02:11:25;;;;;;;15.32;2.53;;;14.70;96.70;;;;;;5101110;28;20122;-77
2021/05/18 02:13:58;;;;;;;13.20;2.65;;;14.70;96.70;;;;;;5103373;28;20458;-77
2021/05/18 02:16:42;;;;;;;9.15;2.55;;;14.70;96.70;;;;;;5085928;28;20040;-76
2021/05/18 02:19:41;;;;;;;9.03;2.50;;;14.70;96.70;;;;;;5086038;28;20438;-77
2021/05/18 02:24:37;;;;;;;8.20;2.22;;;14.70;96.70;;;;;;5105337;27;20130;-76
2021/05/18 02:25:12;;;;;;;10.40;2.50;;;14.60;96.70;;;;;;5103263;27;20100;-77
2021/05/18 02:28:03;;;;;;;9.65;2.00;;;14.50;96.70;;;;;;5103005;27;20047;-77
2021/05/18 02:30:39;;;;;;;7.72;1.77;;;14.30;96.70;;;;;;5105011;27;20086;-77
2021/05/18 02:33:11;;;;;;;11.30;3.05;;;14.30;96.70;;;;;;5082403;28;20043;-77
2021/05/18 02:35:41;;;;;;;8.57;2.35;;;14.40;96.70;;;;;;5100780;28;20047;-77
2021/05/18 02:38:15;;;;;;;10.75;2.20;;;14.40;96.70;;;;;;5104293;28;20132;-77
2021/05/18 02:40:50;;;;;;;9.93;1.60;;;14.50;96.70;;;;;;5099327;28;20031;-77
2021/05/18 02:43:24;;;;;;;10.85;2.40;;;14.40;96.70;;;;;;5086848;28;20066;-77
2021/05/18 02:51:17;;;;;;;11.43;2.45;;;14.40;96.70;;;;;;5097874;28;20513;-77
2021/05/18 02:53:53;;;;;;;7.20;1.95;;;14.30;96.70;;;;;;5089421;28;20063;-77
2021/05/18 03:01:43;;;;;;;9.77;2.42;;;14.30;96.70;;;;;;5099024;28;20516;-78
2021/05/18 03:04:11;;;;;;;11.73;2.17;;;14.40;96.70;;;;;;5101861;28;20101;-77
2021/05/18 03:06:43;;;;;;;8.88;2.25;;;14.30;96.70;;;;;;5086734;28;20088;-78
2021/05/18 03:09:13;;;;;;;9.55;1.98;;;14.20;96.70;;;;;;5103256;28;20074;-77
2021/05/18 03:11:43;;;;;;;11.02;2.47;;;14.20;96.70;;;;;;5100198;28;20489;-77
2021/05/18 03:14:13;;;;;;;13.68;2.80;;;14.30;96.70;;;;;;5102736;27;20043;-77
2021/05/18 03:16:43;;;;;;;8.60;2.42;;;14.30;96.70;;;;;;5081959;28;20134;-78
2021/05/18 03:19:13;;;;;;;7.93;3.35;;;14.30;96.70;;;;;;5102818;28;20059;-78
2021/05/18 03:21:57;;;;;;;10.95;2.40;;;14.30;96.70;;;;;;5104257;28;20633;-78
2021/05/18 03:24:25;;;;;;;9.55;2.03;;;14.20;96.70;;;;;;5091620;28;20047;-77
2021/05/18 03:26:53;;;;;;;7.70;2.28;;;14.10;96.70;;;;;;5102717;28;20028;-77
2021/05/18 03:29:25;;;;;;;7.35;2.25;;;14.00;96.70;;;;;;5101228;28;20039;-77
2021/05/18 03:35:17;;;;;;;7.68;1.80;;;14.10;96.70;;;;;;5092722;27;20516;-78
2021/05/18 03:37:54;;;;;;;8.35;2.10;;;14.10;96.70;;;;;;5085381;28;20100;-77
2021/05/18 03:40:30;;;;;;;9.35;1.77;;;13.90;96.70;;;;;;5080012;28;20450;-77
2021/05/18 03:43:22;;;;;;;12.55;2.67;;;13.90;96.70;;;;;;5097652;28;20134;-77
2021/05/18 03:52:16;;;;;;;11.15;2.38;;;14.00;96.70;;;;;;5105288;27;20052;-77
2021/05/18 04:51:43;;;;;;;7.63;1.67;;;14.20;96.70;;;;;;5094200;28;19938;-77
2021/05/18 04:55:02;;;;;;;;;;;14.10;96.70;;;;;;5099898;28;20060;-77
2021/05/18 05:00:11;;;;;;;23.13;2.58;;;14.30;96.70;;;;;;5099829;28;20591;-77
2021/05/18 05:02:59;;;;;;;11.02;2.47;;;14.30;96.70;;;;;;5082000;28;20199;-78
2021/05/18 05:14:08;;;;;;;10.35;1.90;;;14.30;96.70;;;;;;5105164;27;20039;-78
2021/05/18 05:16:36;;;;;;;16.33;2.50;;;14.30;96.70;;;;;;5101790;28;20071;-77
2021/05/18 05:19:04;;;;;;;10.07;1.40;;;14.40;96.70;;;;;;5105451;28;20050;-78
2021/05/18 05:21:33;;;;;;;8.57;1.83;;;14.40;96.70;;;;;;5100104;28;20051;-78
2021/05/18 05:24:04;;;;;;;10.50;1.80;;;14.50;96.70;;;;;;5099231;28;20131;-77
2021/05/18 05:26:34;;;;;;;10.40;2.38;;;14.50;96.70;;;;;;5101447;28;20480;-77
2021/05/18 05:29:03;;;;;;;5.85;2.00;;;14.50;96.70;;;;;;5095612;28;20055;-78
2021/05/18 05:31:32;;;;;;;10.63;1.95;;;14.60;96.70;;;;;;5105140;28;20528;-77
2021/05/18 05:34:01;;;;;;;8.95;2.40;;;14.70;96.70;;;;;;5102312;28;20040;-77
2021/05/18 05:36:29;;;;;;;10.68;2.30;;;14.80;96.70;;;;;;5105227;28;20516;-77
2021/05/18 05:39:01;;;;;;;7.32;1.95;;;14.70;96.70;;;;;;5104031;28;20045;-77
2021/05/18 05:41:31;;;;;;;13.75;2.47;;;14.80;96.70;;;;;;5103666;28;20036;-77
2021/05/18 05:44:00;;;;;;;10.27;2.63;;;14.80;96.70;;;;;;5099770;28;20381;-76
2021/05/18 05:46:28;;;;;;;12.30;3.13;;;14.80;96.70;;;;;;5103459;28;20097;-77
2021/05/18 05:48:57;;;;;;;13.57;3.22;;;14.70;96.70;;;;;;5101320;28;20093;-77
2021/05/18 05:51:27;;;;;;;10.40;2.35;;;14.80;96.70;;;;;;5104959;28;20479;-76
2021/05/18 05:53:59;;;;;;;8.98;2.30;;;14.80;96.70;;;;;;5095917;28;20125;-76
2021/05/18 05:56:28;;;;;;;13.18;2.53;;;14.70;96.70;;;;;;5101385;28;20028;-76
2021/05/18 05:59:02;;;;;;;10.73;2.40;;;14.80;96.70;;;;;;5098059;28;20118;-76
2021/05/18 06:01:31;;;;;;;14.43;2.75;;;14.80;96.70;;;;;;5104175;28;20048;-76
2021/05/18 06:04:00;;;;;;;10.35;2.90;;;15.00;96.70;;;;;;5102556;28;20032;-76
2021/05/18 06:06:29;;;;;;;12.90;2.97;;;14.90;96.70;;;;;;5084144;28;20051;-76
2021/05/18 06:08:57;;;;;;;10.77;3.30;;;14.80;96.70;;;;;;5103105;28;20466;-75
2021/05/18 06:11:36;;;;;;;12.43;3.05;;;14.70;96.70;;;;;;5103182;28;20046;-77
2021/05/18 06:14:16;;;;;;;11.45;2.92;;;14.80;96.70;;;;;;5103593;27;20040;-76
2021/05/18 06:47:29;;;;;;;9.90;2.15;;;16.00;96.70;;;;;;5099787;28;20040;-76
2021/05/18 06:50:10;;;;;;;13.27;2.20;;;16.10;96.70;;;;;;5098109;28;20128;-78
2021/05/18 06:52:39;;;;;;;8.75;1.42;;;16.20;96.70;;;;;;5099014;27;20131;-76
2021/05/18 06:55:09;;;;;;;10.82;2.50;;;16.30;96.70;;;;;;5102386;27;20039;-76
2021/05/18 06:57:46;;;;;;;9.45;2.05;;;16.30;96.70;;;;;;5103192;28;20039;-76
2021/05/18 07:00:20;;;;;;;13.65;2.17;;;16.30;96.70;;;;;;5101630;28;20501;-75
2021/05/18 07:02:52;;;;;;;13.05;3.45;;;16.40;96.70;;;;;;5099402;28;20089;-76
2021/05/18 07:05:43;;;;;;;6.53;2.00;;;16.50;96.70;;;;;;5101041;28;20577;-75
2021/05/18 07:10:48;;;;;;;9.98;2.25;;;16.70;96.70;;;;;;5098816;28;20078;-76
2021/05/18 07:13:16;;;;;;;11.48;1.95;;;16.70;96.70;;;;;;5102803;28;20074;-76
2021/05/18 07:15:44;;;;;;;8.85;1.65;;;16.70;96.70;;;;;;5106369;27;20526;-76
2021/05/18 07:18:14;;;;;;;10.95;2.15;;;16.70;96.70;;;;;;5102689;28;20068;-76
2021/05/18 07:20:42;;;;;;;7.68;1.98;;;16.80;96.70;;;;;;5086036;28;20416;-76
2021/05/18 07:23:14;;;;;;;11.27;2.20;;;16.80;96.70;;;;;;5103241;28;20054;-75
2021/05/18 07:25:43;;;;;;;9.18;2.00;;;16.90;96.70;;;;;;5093860;28;20064;-75
2021/05/18 07:28:11;;;;;;;7.22;1.70;;;16.90;96.70;;;;;;5112070;27;20112;-76
2021/05/18 07:30:40;;;;;;;9.00;1.77;;;17.00;96.70;;;;;;5099964;28;20713;-76
2021/05/18 07:33:09;;;;;;;13.68;2.20;;;17.10;96.70;;;;;;5100867;28;20085;-77
2021/05/18 07:35:39;;;;;;;10.70;2.13;;;17.20;96.70;;;;;;5082247;28;20040;-77
2021/05/18 07:38:07;;;;;;;11.05;2.40;;;17.30;96.70;;;;;;5102803;28;20042;-77
2021/05/18 07:40:36;;;;;;;9.07;2.05;;;17.30;96.70;;;;;;5100879;28;20056;-77
2021/05/18 07:43:05;;;;;;;12.50;2.38;;;17.40;96.70;;;;;;5099970;28;20128;-77
2021/05/18 07:45:33;;;;;;;12.38;2.20;;;17.50;96.70;;;;;;5101920;28;20031;-77
2021/05/18 07:48:20;;;;;;;10.13;2.03;;;17.60;96.70;;;;;;5100096;28;20044;-77
2021/05/18 08:07:06;;;;;;;10.90;2.30;;;18.20;96.70;;;;;;5102875;28;20059;-76
2021/05/18 08:09:40;;;;;;;11.25;2.33;;;18.30;96.70;;;;;;5101705;28;20135;-77
2021/05/18 08:12:09;;;;;;;11.13;2.15;;;18.30;96.70;;;;;;5093048;28;20048;-77
2021/05/18 08:14:39;;;;;;;13.50;2.22;;;18.40;96.70;;;;;;5089597;28;20195;-77
2021/05/18 09:48:15;;;;;;;7.50;1.70;;;21.00;91.50;;;;;;5070642;28;20059;-77
2021/05/18 10:36:15;;;;;;;9.82;1.98;;;21.80;91.90;;;;;;5115816;27;20070;-77
2021/05/18 10:38:41;;;;;;;8.23;1.85;;;22.00;90.80;;;;;;5099203;28;20495;-77
2021/05/18 10:41:12;;;;;;;8.25;2.13;;;22.30;89.70;;;;;;5102647;28;20665;-78
2021/05/18 10:43:41;;;;;;;8.82;1.80;;;22.30;91.20;;;;;;5095561;28;20089;-78
2021/05/18 10:46:23;;;;;;;8.65;1.90;;;22.40;89.20;;;;;;5097674;28;20043;-78
2021/05/18 10:49:13;;;;;;;10.93;2.20;;;22.30;89.50;;;;;;5103487;28;20042;-78
2021/05/18 10:51:56;;;;;;;7.82;1.75;;;22.30;89.10;;;;;;5096737;27;20401;-77
2021/05/18 10:54:28;;;;;;;8.80;2.30;;;22.10;89.30;;;;;;5103352;28;20491;-79
2021/05/18 10:56:59;;;;;;;8.73;1.50;;;22.10;89.20;;;;;;5085876;28;20575;-77
2021/05/18 10:59:29;;;;;;;7.88;1.35;;;22.10;90.00;;;;;;5104003;28;20036;-77
2021/05/18 11:02:00;;;;;;;6.50;1.45;;;22.20;88.90;;;;;;5100036;28;20054;-77
2021/05/18 11:04:30;;;;;;;6.35;1.55;;;22.20;89.10;;;;;;5103277;28;20043;-78
2021/05/18 11:06:59;;;;;;;6.38;1.70;;;22.10;89.20;;;;;;5102031;28;20443;-78
2021/05/18 11:09:29;;;;;;;9.35;1.63;;;22.20;89.60;;;;;;5082446;28;20509;-78
2021/05/18 11:12:00;;;;;;;6.47;1.50;;;22.20;88.80;;;;;;5099310;28;20542;-78
2021/05/18 11:14:40;;;;;;;8.68;1.77;;;22.00;87.80;;;;;;5101256;27;20043;-78
2021/05/18 11:17:11;;;;;;;5.80;1.33;;;22.10;88.30;;;;;;5083056;28;20050;-78
2021/05/18 11:20:05;;;;;;;6.53;1.50;;;22.00;88.70;;;;;;5099276;28;20113;-78
2021/05/18 11:25:38;;;;;;;7.97;1.63;;;22.40;89.20;;;;;;5100549;28;20071;-78
2021/05/18 11:28:09;;;;;;;7.15;1.58;;;22.80;88.30;;;;;;5102647;28;20505;-78
2021/05/18 11:30:38;;;;;;;5.10;1.20;;;22.90;87.60;;;;;;5083190;28;20060;-78
2021/05/18 11:33:06;;;;;;;7.03;1.60;;;22.70;87.10;;;;;;5102437;28;20047;-78
2021/05/18 11:35:35;;;;;;;7.40;1.40;;;22.50;87.60;;;;;;5098975;28;20074;-79
2021/05/18 11:38:09;;;;;;;6.10;1.40;;;22.50;87.60;;;;;;5091977;28;20031;-79
2021/05/18 11:40:41;;;;;;;6.53;1.30;;;22.50;86.30;;;;;;5098267;28;20551;-78
2021/05/18 11:43:18;;;;;;;5.90;1.45;;;22.70;86.20;;;;;;5096739;28;20047;-79
2021/05/18 11:45:48;;;;;;;5.43;1.30;;;22.80;87.70;;;;;;5101402;28;20167;-78
2021/05/18 11:48:19;;;;;;;6.80;1.35;;;22.70;87.80;;;;;;5099919;28;20138;-78
2021/05/18 11:51:02;;;;;;;9.88;2.00;;;22.70;87.00;;;;;;5098062;28;20452;-79
2021/05/18 11:53:32;;;;;;;7.18;1.70;;;22.60;87.00;;;;;;5100758;28;20040;-78
2021/05/18 11:56:22;;;;;;;7.20;1.80;;;22.20;88.30;;;;;;5102788;28;20039;-78
2021/05/18 11:59:02;;;;;;;8.55;1.77;;;21.80;88.20;;;;;;5099157;27;20050;-77
2021/05/18 12:01:31;;;;;;;7.00;1.48;;;22.10;90.50;;;;;;5093285;28;20501;-78
2021/05/18 12:04:04;;;;;;;10.88;1.65;;;22.50;89.90;;;;;;5099925;28;20399;-78
2021/05/18 12:06:36;;;;;;;13.10;3.03;;;22.70;89.20;;;;;;5102018;28;20043;-79
2021/05/18 12:09:05;;;;;;;8.43;1.88;;;22.70;89.20;;;;;;5097866;28;20162;-79
2021/05/18 12:11:34;;;;;;;8.40;1.88;;;22.70;89.20;;;;;;5083252;28;20043;-79
2021/05/18 12:14:07;;;;;;;7.13;1.48;;;22.80;88.40;;;;;;5106341;27;20167;-80
2021/05/18 12:16:42;;;;;;;4.97;1.35;;;22.70;89.20;;;;;;5103159;27;20097;-80
2021/05/18 12:19:12;;;;;;;7.30;1.92;;;22.50;89.50;;;;;;5097232;28;20501;-78
2021/05/18 12:21:43;;;;;;;6.65;1.50;;;22.40;89.00;;;;;;5103487;28;20126;-79
2021/05/18 12:24:13;;;;;;;7.60;1.77;;;22.60;88.80;;;;;;5108333;27;20039;-78
2021/05/18 12:26:50;;;;;;;8.45;1.70;;;22.50;89.10;;;;;;5109720;27;20427;-79
2021/05/18 12:29:36;;;;;;;9.13;1.80;;;22.60;88.40;;;;;;5094629;28;20065;-78
2021/05/18 12:32:16;;;;;;;11.45;1.70;;;22.40;89.20;;;;;;5100800;28;20042;-78
2021/05/18 12:34:45;;;;;;;8.85;1.40;;;22.30;89.00;;;;;;5100472;28;20698;-79
2021/05/18 12:37:14;;;;;;;6.93;1.15;;;22.30;88.30;;;;;;5099300;28;20560;-78
2021/05/18 12:39:44;;;;;;;9.20;1.30;;;22.30;88.90;;;;;;5097305;28;20043;-80
2021/05/18 12:42:23;;;;;;;5.78;1.45;;;22.40;89.00;;;;;;5101825;28;20028;-79
2021/05/18 12:44:54;;;;;;;5.57;1.30;;;22.30;88.00;;;;;;5095521;28;20057;-79
2021/05/18 12:47:29;;;;;;;11.40;1.85;;;22.50;88.70;;;;;;5098609;28;20426;-79
2021/05/18 12:49:57;;;;;;;9.93;2.00;;;22.60;87.30;;;;;;5100820;28;20485;-80
2021/05/18 12:52:35;;;;;;;10.88;1.35;;;22.50;88.70;;;;;;5081894;28;20059;-80
2021/05/18 12:55:16;;;;;;;5.25;1.40;;;22.50;88.00;;;;;;5100274;28;20051;-80
2021/05/18 12:57:52;;;;;;;9.77;1.60;;;22.20;86.90;;;;;;5100320;28;20035;-79
2021/05/18 13:00:25;;;;;;;9.07;1.58;;;22.10;88.60;;;;;;5099503;28;20569;-80
2021/05/18 13:02:54;;;;;;;9.32;1.58;;;22.20;88.70;;;;;;5098452;28;20059;-80
2021/05/18 13:05:26;;;;;;;9.60;2.28;;;22.50;88.20;;;;;;5082621;28;20048;-80
2021/05/18 13:08:07;;;;;;;6.45;1.73;;;22.50;88.40;;;;;;5101275;28;20523;-79
2021/05/18 13:10:50;;;;;;;10.10;1.42;;;22.60;87.40;;;;;;5092703;28;20051;-79
2021/05/18 13:13:20;;;;;;;7.05;1.67;;;22.60;86.80;;;;;;5100658;28;20040;-79
2021/05/18 13:15:51;;;;;;;9.27;1.48;;;22.80;86.80;;;;;;5085522;28;20068;-79
2021/05/18 13:18:20;;;;;;;4.57;1.55;;;22.90;86.50;;;;;;5097749;28;20415;-79
2021/05/18 13:20:53;;;;;;;9.88;2.20;;;22.80;86.30;;;;;;5099108;28;20134;-79
2021/05/18 13:23:56;;;;;;;10.25;1.67;;;22.80;86.80;;;;;;5100884;28;20051;-79
2021/05/18 13:26:27;;;;;;;7.47;1.55;;;22.80;85.80;;;;;;5093353;28;20043;-79
2021/05/18 13:29:02;;;;;;;6.97;1.27;;;22.70;86.10;;;;;;5103863;28;20044;-79
2021/05/18 13:31:32;;;;;;;8.60;1.77;;;22.80;86.00;;;;;;5096367;28;20036;-79
2021/05/18 13:34:00;;;;;;;9.40;1.98;;;22.90;85.90;;;;;;5101129;28;20130;-79
2021/05/18 13:36:45;;;;;;;9.55;1.80;;;23.00;85.70;;;;;;5103209;28;20043;-80
2021/05/18 13:39:16;;;;;;;6.72;1.70;;;23.30;84.40;;;;;;5103214;28;20034;-79
2021/05/18 13:41:45;;;;;;;7.80;2.25;;;23.30;85.00;;;;;;5106267;28;20463;-79
2021/05/18 13:44:14;;;;;;;9.82;1.55;;;23.50;84.30;;;;;;5087290;28;20051;-79
2021/05/18 13:46:47;;;;;;;7.15;1.70;;;23.30;84.40;;;;;;5105721;28;20078;-79
2021/05/18 13:49:15;;;;;;;8.82;1.88;;;23.50;84.60;;;;;;5101378;28;20036;-80
2021/05/18 13:51:44;;;;;;;7.72;1.77;;;23.30;83.70;;;;;;5088262;28;20039;-80
2021/05/18 13:54:32;;;;;;;5.78;1.45;;;23.60;83.80;;;;;;5101678;28;20047;-80
2021/05/18 13:57:01;;;;;;;7.40;1.83;;;23.40;83.50;;;;;;5104838;28;20463;-81
2021/05/18 13:59:30;;;;;;;6.30;1.35;;;23.70;83.10;;;;;;5104736;28;20100;-80
2021/05/18 14:01:58;;;;;;;4.35;1.35;;;23.80;82.30;;;;;;5086446;28;20047;-79
2021/05/18 14:04:27;;;;;;;5.88;1.33;;;24.00;81.60;;;;;;5102682;28;20474;-80
2021/05/18 14:07:14;;;;;;;5.72;1.38;;;24.30;81.20;;;;;;5104306;28;20455;-80
2021/05/18 14:09:45;;;;;;;7.15;1.30;;;24.40;79.70;;;;;;5096934;28;20055;-80
2021/05/18 14:12:13;;;;;;;9.27;1.88;;;24.50;80.60;;;;;;5104283;28;20535;-80
2021/05/18 14:14:42;;;;;;;6.07;1.30;;;24.90;80.30;;;;;;5101023;27;20037;-79
2021/05/18 14:17:10;;;;;;;6.50;1.58;;;24.60;79.90;;;;;;5105634;28;20549;-78
2021/05/18 14:19:38;;;;;;;7.65;1.60;;;24.60;79.70;;;;;;5104563;28;20193;-78
2021/05/18 14:22:08;;;;;;;8.07;2.00;;;24.60;78.90;;;;;;5102270;28;20385;-79
2021/05/18 14:27:34;;;;;;;7.50;1.30;;;24.60;78.40;;;;;;5096044;28;20571;-79
2021/05/18 14:30:06;;;;;;;6.18;1.17;;;25.50;77.10;;;;;;5090205;28;20158;-78
2021/05/18 14:32:36;;;;;;;7.63;1.50;;;25.20;76.90;;;;;;5096262;28;20052;-79
2021/05/18 14:35:05;;;;;;;7.68;1.95;;;25.40;76.20;;;;;;5065369;28;20043;-78
2021/05/18 14:37:33;;;;;;;9.80;2.13;;;25.30;77.30;;;;;;5097988;28;20101;-79
2021/05/18 14:40:09;;;;;;;7.88;1.85;;;25.60;77.10;;;;;;5100918;28;20063;-79
2021/05/18 14:45:22;;;;;;;6.07;1.45;;;25.60;76.50;;;;;;5096047;28;20066;-79
2021/05/18 14:56:02;;;;;;;6.13;1.70;;;24.20;77.30;;;;;;5083403;28;20558;-78
2021/05/18 14:58:31;;;;;;;7.47;1.33;;;24.80;77.30;;;;;;5098033;28;20051;-79
2021/05/18 15:01:00;;;;;;;7.60;1.73;;;24.90;76.80;;;;;;5081431;28;20090;-78
2021/05/18 15:03:30;;;;;;;5.55;1.13;;;25.70;75.00;;;;;;5096800;28;20059;-79
2021/05/18 15:06:00;;;;;;;8.00;1.55;;;25.90;73.50;;;;;;5102754;28;20108;-79
2021/05/18 15:08:28;;;;;;;7.35;1.70;;;26.00;72.10;;;;;;5103708;28;20521;-80
2021/05/18 15:11:04;;;;;;;5.53;1.52;;;25.80;71.30;;;;;;5094417;28;20063;-79
2021/05/18 15:13:34;;;;;;;7.60;1.33;;;25.80;71.40;;;;;;5105240;27;20039;-78
2021/05/18 15:16:03;;;;;;;5.90;1.67;;;25.90;69.60;;;;;;5100767;28;20075;-79
2021/05/18 15:18:33;;;;;;;5.32;1.38;;;26.00;70.30;;;;;;5095325;28;20094;-78
2021/05/18 15:21:02;;;;;;;5.00;1.10;;;26.00;71.10;;;;;;5081218;28;20044;-79
2021/05/18 15:23:31;;;;;;;4.78;1.60;;;26.20;70.70;;;;;;5098771;28;20128;-80
2021/05/18 15:25:59;;;;;;;9.57;1.45;;;26.20;71.70;;;;;;5099986;28;20046;-79
2021/05/18 15:28:27;;;;;;;7.18;1.92;;;25.80;72.80;;;;;;5086240;28;20044;-80
2021/05/18 15:30:56;;;;;;;4.90;1.40;;;25.50;73.90;;;;;;5093653;28;20039;-79
2021/05/18 15:33:26;;;;;;;6.95;1.38;;;25.70;74.00;;;;;;5099150;28;20175;-78
2021/05/18 15:35:54;;;;;;;9.63;1.73;;;26.30;73.50;;;;;;5099000;28;20066;-78
2021/05/18 15:38:23;;;;;;;6.82;1.80;;;26.40;73.10;;;;;;5104263;28;20130;-78
2021/05/18 15:40:51;;;;;;;5.55;1.45;;;26.60;72.30;;;;;;5098204;28;20469;-79
2021/05/18 15:43:20;;;;;;;7.30;1.60;;;26.20;72.30;;;;;;5101847;28;20089;-79
2021/05/18 15:45:48;;;;;;;5.55;1.48;;;26.00;72.30;;;;;;5100890;28;20051;-79
2021/05/18 15:48:18;;;;;;;7.50;1.67;;;25.40;71.70;;;;;;5102513;28;20039;-78
2021/05/18 15:50:47;;;;;;;6.28;1.58;;;25.50;72.50;;;;;;5084651;28;20137;-78
2021/05/18 15:53:16;;;;;;;6.03;1.42;;;25.80;71.80;;;;;;5102124;28;20046;-79
2021/05/18 15:55:44;;;;;;;7.32;2.15;;;26.70;71.10;;;;;;5100702;28;20055;-79
2021/05/18 15:58:13;;;;;;;5.38;1.50;;;26.60;70.50;;;;;;5100952;28;20076;-80
2021/05/18 16:00:47;;;;;;;6.38;1.63;;;25.80;71.90;;;;;;5093543;28;20171;-79
2021/05/18 16:03:15;;;;;;;5.07;1.60;;;25.70;71.70;;;;;;5098151;28;20085;-78
2021/05/18 16:05:44;;;;;;;6.85;1.63;;;25.50;71.90;;;;;;5080985;28;20047;-78
2021/05/18 16:11:00;;;;;;;7.68;1.55;;;25.70;72.20;;;;;;5101807;28;20050;-79
2021/05/18 16:13:29;;;;;;;7.82;1.70;;;25.90;71.40;;;;;;5103410;27;20031;-79
2021/05/18 16:15:59;;;;;;;6.72;1.60;;;26.10;71.40;;;;;;5101364;28;20040;-78
2021/05/18 16:18:27;;;;;;;7.85;1.50;;;26.20;71.70;;;;;;5097393;28;20052;-80
2021/05/18 16:20:56;;;;;;;7.10;1.77;;;26.80;70.10;;;;;;5101192;28;20043;-78
2021/05/18 16:23:26;;;;;;;8.43;1.67;;;26.70;70.40;;;;;;5100042;28;20048;-80
2021/05/18 16:25:55;;;;;;;7.75;1.95;;;26.70;70.50;;;;;;5101356;28;20462;-80
2021/05/18 16:28:24;;;;;;;5.55;1.52;;;26.80;70.50;;;;;;5101589;27;20043;-78
2021/05/18 16:30:53;;;;;;;7.60;1.85;;;27.30;69.60;;;;;;5102204;28;20112;-78
2021/05/18 16:33:22;;;;;;;7.75;1.70;;;27.10;70.00;;;;;;5081413;28;20048;-79
2021/05/18 16:35:50;;;;;;;6.78;1.73;;;27.10;70.20;;;;;;5099659;28;20567;-78
2021/05/18 16:38:19;;;;;;;6.68;1.65;;;27.00;70.20;;;;;;5096590;28;20058;-79
2021/05/18 16:40:54;;;;;;;8.50;1.30;;;26.80;69.70;;;;;;5103150;28;20485;-79
2021/05/18 16:43:23;;;;;;;10.27;2.20;;;27.10;70.00;;;;;;5099854;28;20036;-78
2021/05/18 16:45:53;;;;;;;7.78;1.60;;;28.00;68.80;;;;;;5095117;28;20504;-77
2021/05/18 16:48:21;;;;;;;5.75;1.38;;;27.70;68.10;;;;;;5099089;28;20130;-79
2021/05/18 16:50:50;;;;;;;5.57;1.55;;;27.30;69.10;;;;;;5095786;28;20116;-77
2021/05/18 16:53:18;;;;;;;7.93;1.95;;;27.20;68.90;;;;;;5100894;28;20051;-77
2021/05/18 16:55:47;;;;;;;7.68;1.70;;;27.00;69.80;;;;;;5084154;28;20052;-77
2021/05/18 16:58:16;;;;;;;7.13;1.73;;;27.10;68.90;;;;;;5101369;28;20065;-78
2021/05/18 17:00:46;;;;;;;9.63;2.22;;;25.70;71.50;;;;;;5102105;28;20062;-77
2021/05/18 17:03:14;;;;;;;11.35;1.67;;;26.60;71.00;;;;;;5101473;28;20067;-79
2021/05/18 17:05:43;;;;;;;6.50;1.45;;;26.70;70.10;;;;;;5105749;28;20528;-78
2021/05/18 17:08:12;;;;;;;8.48;1.75;;;26.00;71.00;;;;;;5087370;28;20044;-77
2021/05/18 17:10:41;;;;;;;5.75;1.40;;;25.80;71.80;;;;;;5101307;28;20047;-77
2021/05/18 17:13:11;;;;;;;8.35;1.65;;;26.20;71.80;;;;;;5105234;28;20043;-76
2021/05/18 17:15:39;;;;;;;15.48;2.15;;;25.90;72.40;;;;;;5108960;27;20044;-74
2021/05/18 17:18:08;;;;;;;9.52;2.15;;;26.30;71.30;;;;;;5102364;28;20040;-76
2021/05/18 17:20:37;;;;;;;8.93;1.77;;;26.30;71.00;;;;;;5105889;27;20439;-76
2021/05/18 17:23:06;;;;;;;5.95;1.75;;;25.50;72.40;;;;;;5100358;28;20079;-77
2021/05/18 17:25:34;;;;;;;8.93;2.13;;;25.60;72.80;;;;;;5101829;28;20035;-77
2021/05/18 17:28:03;;;;;;;8.88;2.13;;;24.50;73.60;;;;;;5107030;27;20046;-77
2021/05/18 17:30:32;;;;;;;6.68;1.50;;;22.70;78.30;;;;;;5098756;28;20408;-77
2021/05/18 17:33:00;;;;;;;6.43;1.55;;;22.70;78.70;;;;;;5100869;28;20079;-77
2021/05/18 17:35:29;;;;;;;10.40;1.70;;;23.90;76.70;;;;;;5077420;28;20054;-77
2021/05/18 17:37:57;;;;;;;6.93;1.55;;;23.90;76.10;;;;;;5083728;28;20096;-78
2021/05/18 17:40:26;;;;;;;5.57;1.35;;;22.90;78.10;;;;;;5098322;28;20079;-77
2021/05/18 17:42:54;;;;;;;9.93;1.88;;;21.50;81.50;;;;;;5087612;28;20063;-77
2021/05/18 17:45:22;;;;;;;9.82;1.80;;;20.60;83.80;;;;;;5100751;28;20415;-77
2021/05/18 17:47:52;;;;;;;7.32;1.50;;;20.10;85.60;;;;;;5105061;28;20048;-77
2021/05/18 17:50:20;;;;;;;11.05;1.67;;;19.90;86.70;;;;;;5087860;28;20040;-77
2021/05/18 17:52:49;;;;;;;5.78;1.30;;;19.50;87.80;;;;;;5102803;27;20050;-77
2021/05/18 17:55:19;;;;;;;12.15;2.10;;;19.20;88.80;;;;;;5096789;28;20067;-77
2021/05/18 17:57:48;;;;;;;8.50;1.42;;;19.10;89.80;;;;;;5101975;28;20043;-78
2021/05/18 18:00:18;;;;;;;5.50;1.52;;;19.10;90.20;;;;;;5103708;28;20470;-77
2021/05/18 18:02:46;;;;;;;9.13;1.67;;;19.00;90.60;;;;;;5085400;28;20040;-78
2021/05/18 18:05:17;;;;;;;9.20;1.52;;;18.80;91.50;;;;;;5101503;28;20040;-77
2021/05/18 18:07:45;;;;;;;7.35;1.17;;;18.70;92.10;;;;;;5104424;28;20066;-77
2021/05/18 18:10:14;;;;;;;8.15;1.95;;;18.70;92.80;;;;;;5100111;28;20038;-77
2021/05/18 18:12:43;;;;;;;10.45;2.05;;;18.70;92.70;;;;;;5106490;28;20031;-77
2021/05/18 18:15:12;;;;;;;7.75;1.63;;;18.60;93.10;;;;;;5104481;27;20050;-77
2021/05/18 18:17:42;;;;;;;9.13;1.52;;;18.60;93.40;;;;;;5101501;28;20156;-77
2021/05/18 18:20:12;;;;;;;10.90;1.70;;;18.60;93.60;;;;;;5097144;27;20419;-77